Latest Weather Observations for PORTABLE QFRC SER

IDQ60801

Issued at 4:12 am EST Saturday 4 April 2020 (issued every 10 minutes, with the page automatically refreshed every 10 minutes)

About weather observations | Map of weather stations | Latest weather observations for QLD | Other Formats
Station Details ID: 250049 Name: PORTABLE QFRC Lat: -27.10 Lon: 152.46 Height: 139.0 m

Portable automatic weather stations (PAWS) are operated by other organisations, such as Fire and Emergency Services, and are included here by agreement. Portable stations may be deployed to a location for a short period and their location may be subject to change without notice. Wind observations from these stations are provided from heights of either three (3) or ten (10) metres above ground level (AGL).

Data from the previous 72 hours. | See also: Recent months for locations in Queensland
Date/Time
EST
Temp
°C
App
Temp
°C
Dew
Point
°C
Rel
Hum
%
Delta-T
°C
Wind Press
QNH
hPa
Press
MSL
hPa
Rain since
9am
mm
Dir  Spd
km/h
Gust
km/h
Spd
kts
Gust
kts
04/04:00am 21.2 23.7 19.1 88 1.3 NNW 4 4 2 2 - - 0.0
04/03:50am 21.1 23.5 18.9 87 1.4 NW 4 4 2 2 - - 0.0
04/03:40am 21.0 23.0 18.7 87 1.4 NNW 6 6 3 3 - - 0.0
04/03:30am 21.2 23.2 18.7 86 1.6 N 6 6 3 3 - - 0.0
04/03:20am 21.4 23.4 18.8 85 1.6 NNW 6 6 3 3 - - 0.0
04/03:10am 21.5 23.6 18.9 85 1.6 NNW 6 6 3 3 - - 0.0
04/03:00am 21.7 23.8 19.0 84 1.7 NW 6 6 3 3 - - 0.0
04/02:50am 21.9 23.9 18.7 82 2.0 NNW 6 7 3 4 - - 0.0
04/02:40am 21.7 23.5 18.8 83 1.8 NNW 7 7 4 4 - - 0.0
04/02:30am 21.6 23.7 19.0 85 1.7 NNW 6 7 3 4 - - 0.0
04/02:20am 21.5 23.6 19.0 86 1.6 NW 6 7 3 4 - - 0.0
04/02:10am 21.4 23.6 19.2 87 1.4 WNW 6 7 3 4 - - 0.0
04/02:00am 21.6 23.8 19.2 86 1.5 NW 6 7 3 4 - - 0.0
04/01:50am 21.6 23.7 19.0 85 1.7 NNW 6 7 3 4 - - 0.0
04/01:40am 21.6 23.6 19.2 86 1.5 NNW 7 7 4 4 - - 0.0
04/01:30am 21.9 23.9 19.2 85 1.7 NNW 7 7 4 4 - - 0.0
04/01:20am 22.0 24.2 19.1 83 1.8 N 6 7 3 4 - - 0.0
04/01:10am 22.1 24.1 19.1 83 1.9 N 7 9 4 5 - - 0.0
04/01:00am 22.0 24.0 19.1 83 1.8 N 7 9 4 5 - - 0.0
04/12:50am 21.8 23.8 19.1 84 1.7 N 7 7 4 4 - - 0.0
04/12:40am 21.6 23.8 19.3 87 1.5 NW 6 7 3 4 - - 0.0
04/12:30am 22.6 24.6 19.2 81 2.2 N 7 7 4 4 - - 0.0
04/12:20am 22.7 24.7 19.2 80 2.2 NNE 7 7 4 4 - - 0.0
04/12:10am 22.7 24.8 19.4 81 2.1 NNE 7 9 4 5 - - 0.0
04/12:00am 22.6 24.7 19.4 82 2.1 NNE 7 9 4 5 - - 0.0
 
Date/Time
EST
Temp
°C
App
Temp
°C
Dew
Point
°C
Rel
Hum
%
Delta-T
°C
Wind Press
QNH
hPa
Press
MSL
hPa
Rain since
9am
mm
Dir  Spd
km/h
Gust
km/h
Spd
kts
Gust
kts
03/11:50pm 22.3 24.4 19.4 83 1.9 NNE 7 7 4 4 - - 0.0
03/11:40pm 21.9 24.6 19.4 86 1.6 N 4 4 2 2 - - 0.0
03/11:30pm 21.8 24.1 19.4 86 1.5 N 6 6 3 3 - - 0.0
03/11:20pm 21.7 23.9 19.3 86 1.5 N 6 6 3 3 - - 0.0
03/11:10pm 21.7 23.9 19.3 86 1.5 NW 6 6 3 3 - - 0.0
03/11:00pm 22.1 24.4 19.5 85 1.7 NNW 6 6 3 3 - - 0.0
03/10:50pm 22.6 25.0 19.7 84 1.9 NW 6 6 3 3 - - 0.0
03/10:40pm 23.2 25.6 19.7 81 2.3 N 6 6 3 3 - - 0.0
03/10:30pm 23.5 25.7 19.6 79 2.5 NNE 7 9 4 5 - - 0.0
03/10:20pm 23.4 25.6 19.5 79 2.5 NNE 7 9 4 5 - - 0.0
03/10:10pm 23.6 25.4 19.6 78 2.6 N 9 11 5 6 - - 0.0
03/10:00pm 23.6 25.3 19.4 77 2.7 NNE 9 9 5 5 - - 0.0
03/09:50pm 23.4 25.5 19.3 78 2.6 N 7 9 4 5 - - 0.0
03/09:40pm 23.2 25.3 19.3 79 2.5 N 7 9 4 5 - - 0.0
03/09:30pm 23.1 25.2 19.3 79 2.4 NNW 7 7 4 4 - - 0.0
03/09:20pm 23.2 25.4 19.2 78 2.6 NNW 6 7 3 4 - - 0.0
03/09:10pm 23.1 25.3 19.1 78 2.6 NW 6 6 3 3 - - 0.0
03/09:00pm 23.1 25.1 19.1 78 2.6 WNW 7 7 4 4 - - 0.0
03/08:50pm 23.0 25.2 19.2 79 2.4 W 6 7 3 4 - - 0.0
03/08:40pm 23.2 25.4 19.2 78 2.6 W 6 6 3 3 - - 0.0
03/08:30pm 23.7 26.2 19.0 75 3.0 W 4 6 2 3 - - 0.0
03/08:20pm 24.4 26.5 18.9 71 3.5 NNW 6 7 3 4 - - 0.0
03/08:10pm 25.0 26.5 19.0 69 3.9 NNE 9 11 5 6 - - 0.0
03/08:00pm 25.2 26.8 19.1 69 3.9 NNE 9 11 5 6 - - 0.0
03/07:50pm 25.3 27.2 18.9 67 4.1 NNE 7 11 4 6 - - 0.0
03/07:40pm 25.3 26.7 18.7 67 4.2 NNE 9 11 5 6 - - 0.0
03/07:30pm 25.6 26.6 18.7 65 4.4 NNE 11 13 6 7 - - 0.0
03/07:20pm 25.7 26.3 18.5 64 4.6 NNE 13 15 7 8 - - 0.0
03/07:10pm 25.9 26.5 18.7 64 4.6 NE 13 17 7 9 - - 0.0
03/07:00pm 26.0 26.6 18.6 63 4.7 NE 13 15 7 8 - - 0.0
03/06:50pm 26.2 26.4 18.5 62 4.9 NE 15 17 8 9 - - 0.0
03/06:40pm 26.3 26.4 18.3 61 5.1 NE 15 17 8 9 - - 0.0
03/06:30pm 26.4 26.9 18.3 61 5.2 NNE 13 15 7 8 - - 0.0
03/06:20pm 26.5 26.9 18.1 60 5.3 NE 13 15 7 8 - - 0.0
03/06:10pm 26.7 27.3 17.6 57 5.8 NE 11 13 6 7 - - 0.0
03/06:00pm 26.8 27.3 17.4 56 5.9 NE 11 13 6 7 - - 0.0
03/05:50pm 27.0 27.6 17.6 56 5.9 NE 11 13 6 7 - - 0.0
03/05:40pm 27.3 28.0 17.9 56 6.0 NNE 11 13 6 7 - - 0.0
03/05:30pm 27.8 28.1 17.9 54 6.3 NE 13 15 7 8 - - 0.0
03/05:20pm 28.1 28.7 17.8 53 6.6 NNE 11 13 6 7 - - 0.0
03/05:10pm 28.2 28.8 17.7 53 6.7 NNE 11 17 6 9 - - 0.0
03/05:00pm 28.6 28.8 17.7 51 6.9 NE 13 17 7 9 - - 0.0
03/04:50pm 28.6 29.5 17.5 51 7.0 NNE 9 11 5 6 - - 0.0
03/04:40pm 28.7 29.7 17.8 51 7.0 NE 9 13 5 7 - - 0.0
03/04:30pm 29.3 29.9 17.8 50 7.4 NE 11 15 6 8 - - 0.0
03/04:20pm 30.1 30.7 17.8 47 7.9 ENE 11 13 6 7 - - 0.0
03/04:10pm 30.3 31.1 17.4 46 8.2 ENE 9 11 5 6 - - 0.0
03/04:00pm 30.4 31.3 17.5 46 8.2 NE 9 11 5 6 - - 0.0
03/03:50pm 30.3 31.1 17.3 45 8.3 NE 9 9 5 5 - - 0.0
03/03:40pm 30.2 30.8 16.8 44 8.5 NE 9 11 5 6 - - 0.0
03/03:30pm 30.4 31.8 17.9 47 8.0 NE 7 9 4 5 - - 0.0
03/03:20pm 30.2 31.3 16.7 44 8.5 NNE 6 9 3 5 - - 0.0
03/03:10pm 30.5 31.7 16.8 43 8.7 NE 6 7 3 4 - - 0.0
03/03:00pm 31.3 32.4 17.2 42 9.0 NE 7 11 4 6 - - 0.0
03/02:50pm 31.4 32.4 16.8 41 9.3 N 7 11 4 6 - - 0.0
03/02:40pm 31.5 33.1 17.9 44 8.8 NW 6 9 3 5 - - 0.0
03/02:30pm 31.4 32.9 18.0 44 8.6 NNW 7 9 4 5 - - 0.0
03/02:20pm 31.4 32.8 17.3 43 9.0 N 6 9 3 5 - - 0.0
03/02:10pm 31.2 31.8 16.8 42 9.1 N 9 11 5 6 - - 0.0
03/02:00pm 31.6 33.2 18.2 44 8.7 N 7 11 4 6 - - 0.0
03/01:50pm 31.4 33.1 18.4 46 8.4 W 7 11 4 6 - - 0.0
03/01:40pm 30.8 32.5 18.1 46 8.2 W 6 9 3 5 - - 0.0
03/01:30pm 30.5 32.2 18.0 47 8.0 W 6 7 3 4 - - 0.0
03/01:20pm 30.2 31.7 17.6 46 8.1 NNE 6 9 3 5 - - 0.0
03/01:10pm 30.7 31.9 17.4 45 8.5 N 7 11 4 6 - - 0.0
03/01:00pm 31.2 32.9 18.1 45 8.5 N 6 9 3 5 - - 0.0
03/12:50pm 30.7 32.6 17.7 45 8.3 SW 4 7 2 4 - - 0.0
03/12:40pm 30.1 31.6 18.0 48 7.8 N 7 13 4 7 - - 0.0
03/12:30pm 29.9 30.9 17.7 48 7.8 NNE 9 11 5 6 - - 0.0
03/12:20pm 30.0 31.5 17.6 47 7.9 N 6 11 3 6 - - 0.0
03/12:10pm 29.9 31.3 17.7 48 7.8 NNW 7 13 4 7 - - 0.0
03/12:00pm 29.7 31.2 17.6 48 7.7 WNW 6 7 3 4 - - 0.0
03/11:50am 29.5 31.0 17.6 48 7.6 N 6 11 3 6 - - 0.0
03/11:40am 29.3 30.8 17.5 49 7.5 NE 6 11 3 6 - - 0.0
03/11:30am 29.0 30.8 18.3 52 6.9 N 6 9 3 5 - - 0.0
03/11:20am 28.5 29.5 17.8 52 6.8 N 9 11 5 6 - - 0.0
03/11:10am 28.5 30.2 18.1 53 6.7 N 6 9 3 5 - - 0.0
03/11:00am 27.7 28.8 18.0 55 6.2 N 9 11 5 6 - - 0.0
03/10:50am 27.8 29.5 18.4 56 6.0 WNW 7 11 4 6 - - 0.0
03/10:40am 27.1 28.7 18.2 58 5.7 WNW 7 13 4 7 - - 0.0
03/10:30am 26.9 28.0 17.9 57 5.7 N 9 15 5 8 - - 0.0
03/10:20am 26.6 28.0 18.6 61 5.1 N 9 13 5 7 - - 0.0
03/10:10am 26.6 27.8 18.2 60 5.4 NW 9 11 5 6 - - 0.0
03/10:00am 26.2 28.0 18.4 62 5.0 NNW 6 9 3 5 - - 0.0
03/09:50am 25.8 27.7 18.5 64 4.7 NW 6 9 3 5 - - 0.0
03/09:40am 25.6 27.4 18.3 64 4.6 NNE 6 6 3 3 - - 0.0
03/09:30am 24.9 26.7 18.2 66 4.2 WNW 6 9 3 5 - - 0.0
03/09:20am 24.4 26.5 18.9 71 3.5 WNW 6 7 3 4 - - 0.0
03/09:10am 24.2 26.3 19.0 72 3.3 NW 6 7 3 4 - - 0.0
03/09:00am 23.8 25.7 18.6 72 3.3 N 6 9 3 5 - - 0.0
03/08:50am 23.2 25.6 18.8 76 2.8 NW 4 6 2 3 - - 0.0
03/08:40am 22.8 24.6 18.3 76 2.8 NNW 6 7 3 4 - - 0.0
03/08:30am 21.9 24.4 19.0 83 1.8 NW 4 6 2 3 - - 0.0
03/08:20am 20.9 23.9 19.2 90 1.1 WNW 2 4 1 2 - - 0.0
03/08:10am 20.1 22.5 18.8 92 0.8 WNW 4 6 2 3 - - 0.0
03/08:00am 19.7 22.4 18.7 94 0.6 NNW 2 6 1 3 - - 0.0
03/07:50am 18.9 21.0 18.1 95 0.5 NE 4 6 2 3 - - 0.0
03/07:40am 18.5 20.4 17.7 95 0.5 NE 4 6 2 3 - - 0.0
03/07:30am 18.5 21.2 17.8 96 0.4 CALM 0 2 0 1 - - 0.0
03/07:20am 17.9 19.7 17.3 96 0.4 NW 4 6 2 3 - - 0.0
03/07:10am 17.6 19.2 17.0 96 0.4 WNW 4 6 2 3 - - 0.0
03/07:00am 17.4 18.6 16.8 96 0.4 W 6 7 3 4 - - 0.0
03/06:50am 17.1 18.9 16.5 96 0.4 WSW 2 6 1 3 - - 0.0
03/06:40am 16.6 18.6 16.1 97 0.3 CALM 0 0 0 0 - - 0.0
03/06:30am 16.2 18.0 15.6 96 0.4 CALM 0 2 0 1 - - 0.0
03/06:20am 16.1 17.6 15.6 97 0.3 NNE 2 4 1 2 - - 0.0
03/06:10am 16.1 17.5 15.5 96 0.4 NE 2 4 1 2 - - 0.0
03/06:00am 16.0 17.8 15.5 97 0.3 CALM 0 4 0 2 - - 0.0
03/05:50am 16.0 17.0 15.4 96 0.4 NNE 4 6 2 3 - - 0.0
03/05:40am 16.0 17.0 15.4 96 0.4 NNE 4 4 2 2 - - 0.0
03/05:30am 16.1 17.5 15.5 96 0.4 ENE 2 4 1 2 - - 0.0
03/05:20am 16.1 17.9 15.5 96 0.4 CALM 0 0 0 0 - - 0.0
03/05:10am 16.2 18.0 15.6 96 0.4 CALM 0 0 0 0 - - 0.0
03/05:00am 16.2 18.0 15.6 96 0.4 CALM 0 0 0 0 - - 0.0
03/04:50am 16.2 17.3 15.5 96 0.4 NNE 4 6 2 3 - - 0.0
03/04:40am 16.1 17.5 15.5 96 0.4 N 2 4 1 2 - - 0.0
03/04:30am 16.2 17.7 15.6 96 0.4 W 2 4 1 2 - - 0.0
03/04:20am 16.1 16.7 15.4 96 0.4 WSW 6 6 3 3 - - 0.0
03/04:10am 16.4 18.3 15.7 96 0.4 CALM 0 2 0 1 - - 0.0
03/04:00am 16.4 18.2 15.6 95 0.5 CALM 0 0 0 0 - - 0.0
03/03:50am 16.6 18.5 15.8 95 0.5 CALM 0 2 0 1 - - 0.0
03/03:40am 16.8 18.8 16.1 96 0.4 CALM 0 0 0 0 - - 0.0
03/03:30am 16.7 18.7 16.0 96 0.4 CALM 0 0 0 0 - - 0.0
03/03:20am 16.8 18.8 16.1 96 0.4 CALM 0 4 0 2 - - 0.0
03/03:10am 16.9 17.8 16.2 96 0.4 NNE 6 6 3 3 - - 0.0
03/03:00am 17.0 18.4 16.3 96 0.4 NW 4 4 2 2 - - 0.0
03/02:50am 17.0 17.9 16.2 95 0.5 WNW 6 6 3 3 - - 0.0
03/02:40am 17.1 18.1 16.3 95 0.5 WNW 6 7 3 4 - - 0.0
03/02:30am 17.1 18.5 16.3 95 0.5 N 4 4 2 2 - - 0.0
03/02:20am 17.2 18.2 16.4 95 0.5 ENE 6 6 3 3 - - 0.0
03/02:10am 17.3 18.7 16.5 95 0.5 ENE 4 7 2 4 - - 0.0
03/02:00am 17.6 18.7 16.7 94 0.5 WNW 6 6 3 3 - - 0.0
03/01:50am 17.7 18.9 16.9 95 0.5 WNW 6 6 3 3 - - 0.0
03/01:40am 17.6 18.8 16.8 95 0.5 NW 6 6 3 3 - - 0.0
03/01:30am 17.6 18.7 16.7 94 0.5 NW 6 6 3 3 - - 0.0
03/01:20am 17.6 18.8 16.8 95 0.5 NNE 6 7 3 4 - - 0.0
03/01:10am 17.8 19.4 17.0 95 0.5 N 4 6 2 3 - - 0.0
03/01:00am 17.8 19.4 16.9 94 0.5 N 4 6 2 3 - - 0.0
03/12:50am 17.9 20.3 17.0 94 0.5 CALM 0 0 0 0 - - 0.0
03/12:40am 18.0 20.0 17.0 94 0.6 ENE 2 4 1 2 - - 0.0
03/12:30am 18.1 20.5 17.1 94 0.6 CALM 0 0 0 0 - - 0.0
03/12:20am 18.0 20.0 16.9 93 0.7 NW 2 6 1 3 - - 0.0
03/12:10am 18.3 20.0 17.1 93 0.7 NW 4 6 2 3 - - 0.0
03/12:00am 18.7 20.5 17.5 93 0.7 SW 4 4 2 2 - - 0.0
 
Date/Time
EST
Temp
°C
App
Temp
°C
Dew
Point
°C
Rel
Hum
%
Delta-T
°C
Wind Press
QNH
hPa
Press
MSL
hPa
Rain since
9am
mm
Dir  Spd
km/h
Gust
km/h
Spd
kts
Gust
kts
02/11:50pm 18.8 20.6 17.5 92 0.8 WSW 4 4 2 2 - - 0.0
02/11:40pm 18.9 20.8 17.6 92 0.8 S 4 6 2 3 - - 0.0
02/11:30pm 18.9 20.7 17.5 92 0.9 SW 4 6 2 3 - - 0.0
02/11:20pm 19.0 21.3 17.6 92 0.9 ESE 2 4 1 2 - - 0.0
02/11:10pm 19.1 20.6 17.7 92 0.9 - 6 6 3 3 - - 0.0
02/11:00pm 19.1 21.8 17.8 92 0.8 CALM 0 4 0 2 - - 0.0
02/10:50pm 19.1 21.0 17.7 92 0.9 E 4 6 2 3 - - 0.0
02/10:40pm 19.0 20.9 17.6 92 0.9 E 4 6 2 3 - - 0.0
02/10:30pm 18.9 20.4 17.5 92 0.9 E 6 6 3 3 - - 0.0
02/10:20pm 19.1 21.0 17.7 92 0.9 ENE 4 6 2 3 - - 0.0
02/10:10pm 19.3 21.2 17.6 90 1.0 ENE 4 6 2 3 - - 0.0
02/10:00pm 19.5 21.9 17.9 90 1.0 SSE 2 4 1 2 - - 0.0
02/09:50pm 19.4 22.1 17.7 90 1.0 CALM 0 2 0 1 - - 0.0
02/09:40pm 19.6 21.9 17.8 89 1.1 S 2 6 1 3 - - 0.0
02/09:30pm 19.8 21.8 17.8 88 1.2 WNW 4 6 2 3 - - 0.0
02/09:20pm 20.0 21.6 17.8 87 1.4 W 6 7 3 4 - - 0.0
02/09:10pm 20.1 21.7 17.9 87 1.4 WSW 6 7 3 4 - - 0.0
02/09:00pm 20.7 22.4 18.0 84 1.7 WSW 6 7 3 4 - - 0.0
02/08:50pm 21.2 22.8 17.8 81 2.1 SW 6 7 3 4 - - 0.0
02/08:40pm 21.2 23.2 17.9 81 2.1 WSW 4 4 2 2 - - 0.0
02/08:30pm 21.3 23.3 17.9 81 2.1 NW 4 6 2 3 - - 0.0
02/08:20pm 21.1 22.6 17.7 81 2.1 NW 6 9 3 5 - - 0.0
02/08:10pm 21.1 22.7 17.8 81 2.1 SW 6 7 3 4 - - 0.0
02/08:00pm 21.6 23.2 17.8 79 2.4 S 6 7 3 4 - - 0.0
02/07:50pm 22.2 23.8 18.3 78 2.5 ENE 7 9 4 5 - - 0.0
02/07:40pm 23.2 24.4 18.2 73 3.2 NE 9 11 5 6 - - 0.0
02/07:30pm 23.3 24.8 18.1 72 3.3 NNE 7 9 4 5 - - 0.0
02/07:20pm 23.5 25.1 17.9 71 3.5 N 6 9 3 5 - - 0.0
02/07:10pm 23.4 25.0 17.9 71 3.5 N 6 7 3 4 - - 0.0
02/07:00pm 23.5 25.8 17.8 70 3.6 NNE 2 4 1 2 - - 0.0
02/06:50pm 23.6 25.9 17.8 70 3.6 NE 2 6 1 3 - - 0.0
02/06:40pm 23.9 25.5 17.8 68 3.8 E 6 7 3 4 - - 0.0
02/06:30pm 24.2 26.2 17.8 67 4.0 E 4 4 2 2 - - 0.0
02/06:20pm 24.5 25.9 17.8 66 4.2 ENE 7 13 4 7 - - 0.0
02/06:10pm 24.7 26.1 17.7 65 4.4 ENE 7 13 4 7 - - 0.0
02/06:00pm 24.9 25.8 17.6 64 4.6 NE 9 11 5 6 - - 0.0
02/05:50pm 25.3 25.9 17.6 62 4.8 NE 11 13 6 7 - - 0.0
02/05:40pm 25.7 26.0 17.1 59 5.4 NE 11 15 6 8 - - 0.0
02/05:30pm 26.2 26.4 16.7 56 5.9 NE 11 13 6 7 - - 0.0
02/05:20pm 26.3 26.6 16.0 53 6.3 NE 9 13 5 7 - - 0.0
02/05:10pm 26.1 27.1 16.8 56 5.8 NE 7 9 4 5 - - 0.0
02/05:00pm 26.4 27.0 16.8 55 6.0 NE 9 11 5 6 - - 0.0
02/04:50pm 26.6 27.2 16.7 54 6.2 NE 9 11 5 6 - - 0.0
02/04:40pm 26.9 28.0 17.1 55 6.2 NNE 7 9 4 5 - - 0.0
02/04:30pm 27.2 27.6 16.3 51 6.8 NE 9 9 5 5 - - 0.0
02/04:20pm 27.6 28.0 16.2 49 7.1 NNE 9 13 5 7 - - 0.0
02/04:10pm 28.1 28.0 16.0 47 7.5 NNE 11 13 6 7 - - 0.0
02/04:00pm 28.7 28.6 15.9 45 7.9 NNE 11 15 6 8 - - 0.0
02/03:50pm 29.1 29.3 15.8 44 8.2 NNE 9 11 5 6 - - 0.0
02/03:40pm 28.3 28.7 16.4 48 7.4 NNE 9 11 5 6 - - 0.0
02/03:30pm 28.3 28.6 16.1 47 7.6 N 9 11 5 6 - - 0.0
02/03:20pm 28.7 29.2 16.5 47 7.6 N 9 15 5 8 - - 0.0
02/03:10pm 29.5 30.5 16.8 46 8.0 N 7 11 4 6 - - 0.0
02/03:00pm 29.4 30.8 16.3 45 8.2 NNW 4 9 2 5 - - 0.0
02/02:50pm 29.0 29.7 15.6 44 8.3 S 6 7 3 4 - - 0.0
02/02:40pm 29.4 30.4 16.4 45 8.1 SSE 6 7 3 4 - - 0.0
02/02:30pm 29.7 30.6 15.1 41 9.0 NE 4 4 2 2 - - 0.0
02/02:20pm 28.7 29.2 15.5 44 8.1 NE 7 9 4 5 - - 0.0
02/02:10pm 29.3 29.4 16.6 46 8.0 NNE 11 13 6 7 - - 0.0
02/02:00pm 30.4 31.9 17.5 46 8.2 NNW 6 7 3 4 - - 0.0
02/01:50pm 30.1 31.3 16.0 42 8.8 NNE 4 11 2 6 - - 0.0
02/01:40pm 30.3 31.4 16.7 44 8.6 E 6 13 3 7 - - 0.0
02/01:30pm 30.1 31.2 16.6 44 8.5 W 6 7 3 4 - - 0.0
02/01:20pm 29.8 30.4 15.3 41 8.9 S 6 9 3 5 - - 0.0
02/01:10pm 29.5 29.8 16.0 44 8.4 E 9 11 5 6 - - 0.0
02/01:00pm 29.7 31.0 17.2 47 7.9 NNE 6 11 3 6 - - 0.0
02/12:50pm 29.3 30.2 17.5 49 7.5 NE 9 13 5 7 - - 0.0
02/12:40pm 29.9 31.2 17.2 46 8.1 NNE 6 9 3 5 - - 0.0
02/12:30pm 29.8 30.8 16.3 44 8.5 ENE 6 9 3 5 - - 0.0
02/12:20pm 29.3 30.2 16.5 46 8.0 SSE 7 9 4 5 - - 0.0
02/12:10pm 29.1 30.5 17.4 49 7.4 E 6 7 3 4 - - 0.0
02/12:00pm 28.3 30.3 16.9 50 7.2 SE 2 6 1 3 - - 0.0
02/11:50am 28.5 29.7 16.8 49 7.4 NE 6 11 3 6 - - 0.0
02/11:40am 27.1 27.9 15.8 50 7.0 SSE 6 9 3 5 - - 0.0
02/11:30am 27.3 27.9 16.9 53 6.5 SSE 9 11 5 6 - - 0.0
02/11:20am 28.1 29.3 16.9 50 7.0 SE 6 11 3 6 - - 0.0
02/11:10am 27.1 28.2 17.2 54 6.2 SSE 7 9 4 5 - - 0.0
02/11:00am 27.0 27.8 17.4 55 6.1 SSE 9 11 5 6 - - 0.0
02/10:50am 27.3 28.6 17.6 55 6.1 SE 7 9 4 5 - - 0.0
02/10:40am 26.8 27.8 17.7 57 5.8 SSE 9 11 5 6 - - 0.0
02/10:30am 26.2 27.0 17.2 57 5.6 SSE 9 13 5 7 - - 0.0
02/10:20am 26.1 26.9 18.1 61 5.1 SSE 11 15 6 8 - - 0.0
02/10:10am 26.5 27.2 17.9 59 5.5 SE 11 15 6 8 - - 0.0
02/10:00am 26.2 27.0 18.2 61 5.1 SSE 11 17 6 9 - - 0.0
02/09:50am 26.2 27.5 18.4 62 5.0 SSE 9 13 5 7 - - 0.0
02/09:40am 25.4 26.9 18.8 67 4.2 SSE 9 15 5 8 - - 0.0
02/09:30am 25.3 26.2 18.4 65 4.4 S 11 13 6 7 - - 0.0
02/09:20am 25.1 26.0 18.4 66 4.3 SSE 11 13 6 7 - - 0.0
02/09:10am 24.6 26.1 19.0 71 3.6 S 9 11 5 6 - - 0.0
02/09:00am 23.8 25.6 18.8 73 3.2 S 7 11 4 6 - - 0.0
02/08:50am 23.2 24.7 18.8 76 2.8 SSE 9 11 5 6 - - 0.0
02/08:40am 22.9 24.7 18.7 77 2.7 SSE 7 11 4 6 - - 0.0
02/08:30am 22.6 24.4 18.7 78 2.5 S 7 9 4 5 - - 0.0
02/08:20am 22.5 24.9 18.8 79 2.3 S 4 6 2 3 - - 0.0
02/08:10am 21.6 23.9 18.5 82 2.0 NNW 4 7 2 4 - - 0.0
02/08:00am 20.8 22.5 18.5 87 1.4 ENE 7 9 4 5 - - 0.0
02/07:50am 20.7 22.7 18.8 89 1.2 SE 6 7 3 4 - - 0.0
02/07:40am 20.3 23.1 18.8 91 0.9 SW 2 4 1 2 - - 0.0
02/07:30am 19.6 22.2 18.5 93 0.7 W 2 4 1 2 - - 0.0
02/07:20am 19.0 21.1 18.1 94 0.6 WNW 4 4 2 2 - - 0.0
02/07:10am 18.7 20.7 17.9 95 0.5 WNW 4 4 2 2 - - 0.0
02/07:00am 18.2 20.4 17.5 96 0.4 NW 2 4 1 2 - - 0.0
02/06:50am 17.7 20.1 17.1 96 0.4 CALM 0 0 0 0 - - 0.0
02/06:40am 16.9 18.6 16.3 96 0.4 W 2 4 1 2 - - 0.0
02/06:30am 16.9 17.9 16.3 96 0.4 SSW 6 6 3 3 - - 0.0
02/06:20am 17.0 18.8 16.4 96 0.4 WSW 2 6 1 3 - - 0.0
02/06:10am 16.9 19.0 16.3 96 0.4 CALM 0 2 0 1 - - 0.0
02/06:00am 16.6 18.2 16.0 96 0.4 S 2 4 1 2 - - 0.0
02/05:50am 16.5 18.5 15.9 96 0.4 CALM 0 2 0 1 - - 0.0
02/05:40am 16.4 18.3 15.8 96 0.4 CALM 0 4 0 2 - - 0.0
02/05:30am 16.3 18.2 15.7 96 0.4 CALM 0 4 0 2 - - 0.0
02/05:20am 16.3 18.2 15.7 96 0.4 CALM 0 0 0 0 - - 0.0
02/05:10am 16.2 18.0 15.6 96 0.4 CALM 0 0 0 0 - - 0.0
02/05:00am 16.2 18.0 15.6 96 0.4 CALM 0 0 0 0 - - 0.0
02/04:50am 16.3 17.8 15.6 96 0.4 S 2 4 1 2 - - 0.0
02/04:40am 16.5 17.7 15.9 96 0.4 E 4 6 2 3 - - 0.0
02/04:30am 16.7 18.4 16.1 96 0.4 NNW 2 4 1 2 - - 0.0
02/04:20am 16.6 17.5 16.0 96 0.4 NW 6 6 3 3 - - 0.0
02/04:10am 16.3 17.4 15.7 96 0.4 NW 4 6 2 3 - - 0.0
02/04:00am 16.4 17.5 15.7 96 0.4 WNW 4 4 2 2 - - 0.0
02/03:50am 16.2 17.3 15.5 96 0.4 WSW 4 4 2 2 - - 0.0
02/03:40am 16.2 17.6 15.5 96 0.4 WSW 2 4 1 2 - - 0.0
02/03:30am 16.4 17.9 15.7 96 0.4 E 2 4 1 2 - - 0.0
02/03:20am 16.6 18.1 15.8 95 0.5 N 2 4 1 2 - - 0.0
02/03:10am 16.6 18.2 15.9 96 0.4 NNW 2 6 1 3 - - 0.0
02/03:00am 16.6 17.8 15.8 95 0.5 SW 4 4 2 2 - - 0.0
02/02:50am 17.0 18.8 16.4 96 0.4 SSW 2 4 1 2 - - 0.0
02/02:40am 16.9 18.2 16.2 96 0.4 SW 4 4 2 2 - - 0.0
02/02:30am 16.7 18.3 15.9 95 0.5 N 2 6 1 3 - - 0.0
02/02:20am 16.8 18.0 16.0 95 0.5 ENE 4 6 2 3 - - 0.0
02/02:10am 16.9 17.8 16.1 95 0.5 ENE 6 7 3 4 - - 0.0
02/02:00am 16.9 18.2 16.2 96 0.4 NNE 4 6 2 3 - - 0.0
02/01:50am 16.7 17.9 15.8 94 0.5 NNE 4 6 2 3 - - 0.0
02/01:40am 17.0 18.3 16.1 94 0.5 ENE 4 4 2 2 - - 0.0
02/01:30am 17.1 18.4 16.2 94 0.5 NE 4 4 2 2 - - 0.0
02/01:20am 17.5 19.4 16.6 94 0.5 WNW 2 4 1 2 - - 0.0
02/01:10am 17.6 19.2 16.8 95 0.5 W 4 6 2 3 - - 0.0
02/01:00am 17.5 18.6 16.6 94 0.5 W 6 6 3 3 - - 0.0
02/12:50am 17.4 18.8 16.4 94 0.6 WSW 4 6 2 3 - - 0.0
02/12:40am 17.8 19.7 16.6 93 0.7 W 2 4 1 2 - - 0.0
02/12:30am 18.2 20.3 17.1 93 0.7 NNW 2 4 1 2 - - 0.0
02/12:20am 18.3 20.1 17.3 94 0.6 NNE 4 6 2 3 - - 0.0
02/12:10am 18.2 19.9 17.1 93 0.7 NE 4 6 2 3 - - 0.0
02/12:00am 18.3 19.9 16.9 91 0.8 NE 4 4 2 2 - - 0.0
 
Date/Time
EST
Temp
°C
App
Temp
°C
Dew
Point
°C
Rel
Hum
%
Delta-T
°C
Wind Press
QNH
hPa
Press
MSL
hPa
Rain since
9am
mm
Dir  Spd
km/h
Gust
km/h
Spd
kts
Gust
kts
01/11:50pm 18.5 20.2 17.1 91 0.9 N 4 4 2 2 - - 0.0
01/11:40pm 18.6 20.7 17.2 91 0.9 W 2 4 1 2 - - 0.0
01/11:30pm 18.7 20.1 17.3 91 0.9 W 6 7 3 4 - - 0.0
01/11:20pm 19.2 21.0 17.5 90 1.0 W 4 6 2 3 - - 0.0
01/11:10pm 19.6 22.0 17.9 90 1.1 W 2 4 1 2 - - 0.0
01/11:00pm 20.0 22.0 17.9 88 1.3 NNW 4 4 2 2 - - 0.0
01/10:50pm 20.6 22.6 17.9 84 1.7 WSW 4 6 2 3 - - 0.0
01/10:40pm 20.7 22.4 18.1 85 1.6 SSW 6 6 3 3 - - 0.0
01/10:30pm 20.7 22.8 18.1 85 1.6 SSW 4 6 2 3 - - 0.0
01/10:20pm 21.1 23.2 18.1 83 1.9 SSW 4 6 2 3 - - 0.0
01/10:10pm 21.6 23.7 18.2 81 2.1 S 4 6 2 3 - - 0.0
01/10:00pm 22.2 24.0 18.4 79 2.4 SE 6 7 3 4 - - 0.0
01/09:50pm 22.3 24.0 18.5 79 2.4 SE 7 7 4 4 - - 0.0
01/09:40pm 22.1 23.9 18.4 79 2.3 SSE 6 7 3 4 - - 0.0
01/09:30pm 22.4 24.1 18.5 78 2.5 SSE 7 9 4 5 - - 0.0
01/09:20pm 22.6 24.3 18.4 77 2.6 SSE 7 9 4 5 - - 0.0
01/09:10pm 22.7 24.3 18.2 76 2.8 SSE 7 9 4 5 - - 0.0
01/09:00pm 22.8 24.0 18.2 75 2.9 SSE 9 13 5 7 - - 0.0
01/08:50pm 22.8 23.9 17.9 74 3.1 S 9 11 5 6 - - 0.0
01/08:40pm 23.0 24.1 18.0 73 3.1 S 9 9 5 5 - - 0.0
01/08:30pm 23.2 24.7 17.7 71 3.4 S 6 9 3 5 - - 0.0
01/08:20pm 23.4 24.8 17.4 69 3.7 SE 6 9 3 5 - - 0.0
01/08:10pm 23.3 24.6 17.0 67 3.9 ENE 6 9 3 5 - - 0.0
01/08:00pm 23.3 24.7 17.4 69 3.7 SW 6 9 3 5 - - 0.0
01/07:50pm 23.5 24.3 16.4 64 4.4 NE 7 13 4 7 - - 0.0
01/07:40pm 23.0 24.2 16.9 68 3.8 W 6 7 3 4 - - 0.0
01/07:30pm 22.8 24.2 17.3 71 3.4 SW 6 7 3 4 - - 0.0
01/07:20pm 23.4 25.3 17.7 70 3.6 SW 4 7 2 4 - - 0.0
01/07:10pm 23.6 25.4 17.5 68 3.8 W 4 4 2 2 - - 0.0
01/07:00pm 23.9 25.8 17.6 68 3.9 WSW 4 6 2 3 - - 0.0
01/06:50pm 24.0 25.4 17.3 66 4.2 SSW 6 7 3 4 - - 0.0
01/06:40pm 23.7 25.9 17.5 68 3.9 S 2 6 1 3 - - 0.0
01/06:30pm 23.9 25.6 17.2 66 4.2 ESE 4 9 2 5 - - 0.0
01/06:20pm 23.9 25.1 17.4 67 4.1 E 7 9 4 5 - - 0.0
01/06:10pm 24.0 25.3 17.2 65 4.2 ESE 6 7 3 4 - - 0.0
01/06:00pm 24.4 25.5 17.1 63 4.5 E 7 9 4 5 - - 0.0
01/05:50pm 24.6 26.0 17.4 64 4.5 E 6 7 3 4 - - 0.0
01/05:40pm 25.3 27.1 17.4 61 5.0 E 4 6 2 3 - - 0.0
01/05:30pm 25.7 27.0 17.1 59 5.4 E 6 7 3 4 - - 0.0
01/05:20pm 25.7 27.0 17.2 59 5.3 ENE 6 11 3 6 - - 0.0
01/05:10pm 25.4 25.7 17.0 59 5.2 E 11 13 6 7 - - 0.0
01/05:00pm 25.5 25.6 16.6 58 5.5 E 11 13 6 7 - - 0.0
01/04:50pm 25.7 26.4 17.1 59 5.4 E 9 13 5 7 - - 0.0
01/04:40pm 25.9 26.2 17.1 58 5.5 E 11 13 6 7 - - 0.0
01/04:30pm 26.1 26.8 17.1 57 5.6 E 9 13 5 7 - - 0.0
01/04:20pm 26.3 26.5 16.8 56 5.9 E 11 13 6 7 - - 0.0
01/04:10pm 26.6 26.1 16.8 55 6.1 E 15 17 8 9 - - 0.0
01/04:00pm 26.8 27.1 17.1 55 6.1 ENE 11 13 6 7 - - 0.0
01/03:50pm 26.8 27.4 16.9 54 6.2 NE 9 13 5 7 - - 0.0
01/03:40pm 26.9 27.9 17.7 57 5.8 ENE 9 13 5 7 - - 0.0
01/03:30pm 26.8 26.7 17.0 55 6.1 E 13 13 7 7 - - 0.0
01/03:20pm 27.0 27.0 17.3 55 6.1 E 13 15 7 8 - - 0.0
01/03:10pm 27.4 27.7 16.9 52 6.6 E 11 13 6 7 - - 0.0
01/03:00pm 27.8 28.7 16.5 50 7.1 ESE 7 9 4 5 - - 0.0
01/02:50pm 28.1 28.4 15.9 47 7.6 - 9 11 5 6 - - 0.0
01/02:40pm 29.0 28.0 15.6 44 8.3 E 15 19 8 10 - - 0.0
01/02:30pm 30.6 30.8 15.7 40 9.3 E 9 15 5 8 - - 0.0
01/02:20pm 30.3 30.9 16.7 44 8.6 NNE 9 11 5 6 - - 0.0
01/02:10pm 30.2 30.9 16.2 42 8.8 NE 7 9 4 5 - - 0.0
01/02:00pm 29.9 30.6 16.0 43 8.7 N 7 9 4 5 - - 0.0
01/01:50pm 29.5 30.3 16.3 45 8.3 ENE 7 7 4 4 - - 0.0
01/01:40pm 29.6 30.1 16.5 45 8.2 ESE 9 11 5 6 - - 0.0
01/01:30pm 29.0 28.9 16.9 48 7.6 ESE 13 15 7 8 - - 0.0
01/01:20pm 30.0 31.3 17.6 47 7.9 SSE 7 11 4 6 - - 0.0
01/01:10pm 29.5 30.6 17.0 47 7.9 SSE 7 13 4 7 - - 0.0
01/01:00pm 29.6 31.5 18.9 52 7.0 SSE 7 13 4 7 - - 0.0
01/12:50pm 29.1 29.9 17.4 49 7.4 SSE 9 11 5 6 - - 0.0
01/12:40pm 29.0 29.7 17.9 51 7.1 SE 11 13 6 7 - - 0.0
01/12:30pm 28.9 29.9 17.7 50 7.1 SSE 9 13 5 7 - - 0.0
01/12:20pm 29.0 29.6 17.7 50 7.2 SE 11 15 6 8 - - 0.0
01/12:10pm 28.6 29.4 17.3 50 7.2 S 9 13 5 7 - - 0.0
01/12:00pm 28.8 29.8 17.7 51 7.1 S 9 9 5 5 - - 0.0
01/11:50am 28.5 29.4 17.5 51 7.0 S 9 11 5 6 - - 0.0
01/11:40am 28.4 29.5 18.0 53 6.6 S 9 15 5 8 - - 0.0
01/11:30am 27.9 28.6 17.9 54 6.4 SSE 11 13 6 7 - - 0.0
01/11:20am 28.0 28.8 18.2 55 6.3 S 11 15 6 8 - - 0.0
01/11:10am 27.6 28.4 17.3 53 6.5 SSE 9 13 5 7 - - 0.0
01/11:00am 27.5 28.2 18.0 56 6.1 S 11 13 6 7 - - 0.0
01/10:50am 27.5 28.1 17.7 55 6.2 S 11 15 6 8 - - 0.0
01/10:40am 27.3 27.8 17.5 55 6.2 S 11 15 6 8 - - 0.0
01/10:30am 27.1 28.5 17.7 56 6.0 SE 7 15 4 8 - - 0.0
01/10:20am 27.1 28.3 18.3 58 5.6 SE 9 13 5 7 - - 0.0
01/10:10am 26.8 27.6 18.2 59 5.5 S 11 15 6 8 - - 0.0
01/10:00am 26.2 27.1 18.3 61 5.0 SSE 11 15 6 8 - - 0.0
01/09:50am 26.0 26.6 17.8 60 5.2 SE 11 13 6 7 - - 0.0
01/09:40am 25.9 26.9 18.7 64 4.6 SSE 11 15 6 8 - - 0.0
01/09:30am 25.4 26.4 18.7 66 4.3 S 11 13 6 7 - - 0.0
01/09:20am 25.1 25.5 18.2 65 4.4 SSE 13 15 7 8 - - 0.0
01/09:10am 24.9 25.7 18.2 66 4.2 S 11 13 6 7 - - 0.0
01/09:00am 24.5 25.8 19.2 72 3.4 SSE 11 13 6 7 - - 0.0
01/08:50am 24.1 25.6 18.8 72 3.4 S 9 11 5 6 - - 0.0
01/08:40am 23.6 25.1 18.8 74 3.1 SSE 9 11 5 6 - - 0.0
01/08:30am 23.1 25.1 19.2 79 2.5 SSE 7 9 4 5 - - 0.0
01/08:20am 22.4 24.5 19.4 83 1.9 SSE 7 9 4 5 - - 0.0
01/08:10am 21.7 24.1 19.6 88 1.3 SSE 6 9 3 5 - - 0.0
01/08:00am 21.3 24.2 19.9 92 0.9 SSE 4 6 2 3 - - 0.0
01/07:50am 20.9 24.2 19.9 94 0.6 SSW 2 4 1 2 - - 0.0
01/07:40am 20.5 24.1 19.7 95 0.5 CALM 0 2 0 1 - - 0.0
01/07:30am 20.0 23.4 19.3 96 0.4 CALM 0 2 0 1 - - 0.0
01/07:20am 19.5 22.3 18.8 96 0.4 SSW 2 4 1 2 - - 0.0
01/07:10am 18.9 21.8 18.3 96 0.4 CALM 0 2 0 1 - - 0.0
01/07:00am 18.3 21.0 17.7 96 0.4 CALM 0 0 0 0 - - 0.0
01/06:50am 17.8 20.3 17.2 96 0.4 CALM 0 2 0 1 - - 0.0
01/06:40am 17.7 20.1 17.1 96 0.4 CALM 0 2 0 1 - - 0.0
01/06:30am 17.4 19.7 16.8 96 0.4 CALM 0 0 0 0 - - 0.0
01/06:20am 17.2 19.4 16.6 96 0.4 CALM 0 2 0 1 - - 0.0
01/06:10am 17.1 19.3 16.5 96 0.4 CALM 0 4 0 2 - - 0.0
01/06:00am 17.0 18.8 16.4 96 0.4 WNW 2 4 1 2 - - 0.0
01/05:50am 17.0 19.1 16.3 96 0.4 CALM 0 0 0 0 - - 0.0
01/05:40am 16.9 19.0 16.3 96 0.4 CALM 0 0 0 0 - - 0.0
01/05:30am 16.9 18.6 16.2 96 0.4 SW 2 4 1 2 - - 0.0
01/05:20am 17.1 18.9 16.4 96 0.4 SW 2 6 1 3 - - 0.0
01/05:10am 17.4 19.7 16.8 96 0.4 CALM 0 2 0 1 - - 0.0
01/05:00am 17.5 19.4 16.8 96 0.4 WSW 2 4 1 2 - - 0.0
01/04:50am 17.6 19.6 16.9 96 0.4 SW 2 4 1 2 - - 0.0
01/04:40am 17.9 20.4 17.3 96 0.4 CALM 0 0 0 0 - - 0.0
01/04:30am 18.0 20.5 17.3 96 0.4 CALM 0 0 0 0 - - 0.0
01/04:20am 17.9 20.4 17.2 96 0.4 CALM 0 0 0 0 - - 0.0

Other formats

Comma delimited format used in spreadsheet applications
http://www.bom.gov.au/fwo/IDQ60801/IDQ60801.99084.axf

JavaScript Object Notation format (JSON) in row-major order
http://www.bom.gov.au/fwo/IDQ60801/IDQ60801.99084.json

Data quality

Most of these data are generated automatically and are frequently updated. Quality checks on data are not normally performed. It is possible for incorrect values to appear. Refer to information at About Latest Weather Observations and please check the disclaimer before using these data.